sensor_id;sensor_type;location;lat;lon;timestamp;temperature;humidity
69999;DHT22;57339;52.156;5.372;2024-02-14T00:01:31;8.70;99.90
69999;DHT22;57339;52.156;5.372;2024-02-14T00:04:03;8.70;99.90
69999;DHT22;57339;52.156;5.372;2024-02-14T00:06:47;8.70;99.90
69999;DHT22;57339;52.156;5.372;2024-02-14T00:47:02;9.00;99.90
69999;DHT22;57339;52.156;5.372;2024-02-14T00:49:41;9.10;99.90
69999;DHT22;57339;52.156;5.372;2024-02-14T00:52:08;9.10;99.90
69999;DHT22;57339;52.156;5.372;2024-02-14T00:54:36;9.10;99.90
69999;DHT22;57339;52.156;5.372;2024-02-14T00:57:03;9.10;99.90
69999;DHT22;57339;52.156;5.372;2024-02-14T00:59:35;9.20;99.90
69999;DHT22;57339;52.156;5.372;2024-02-14T01:02:02;9.20;99.90
69999;DHT22;57339;52.156;5.372;2024-02-14T01:04:32;9.20;99.90
69999;DHT22;57339;52.156;5.372;2024-02-14T01:07:03;9.30;99.90
69999;DHT22;57339;52.156;5.372;2024-02-14T01:09:32;9.30;99.90
69999;DHT22;57339;52.156;5.372;2024-02-14T01:12:02;9.30;99.90
69999;DHT22;57339;52.156;5.372;2024-02-14T01:14:31;9.30;99.90
69999;DHT22;57339;52.156;5.372;2024-02-14T01:17:11;9.40;99.90
69999;DHT22;57339;52.156;5.372;2024-02-14T01:19:42;9.40;99.90
69999;DHT22;57339;52.156;5.372;2024-02-14T01:22:19;9.40;99.90
69999;DHT22;57339;52.156;5.372;2024-02-14T01:25:00;9.40;99.90
69999;DHT22;57339;52.156;5.372;2024-02-14T01:27:32;9.50;99.90
69999;DHT22;57339;52.156;5.372;2024-02-14T01:30:04;9.50;99.90
69999;DHT22;57339;52.156;5.372;2024-02-14T01:32:36;9.50;99.90
69999;DHT22;57339;52.156;5.372;2024-02-14T01:35:06;9.50;99.90
69999;DHT22;57339;52.156;5.372;2024-02-14T01:37:37;9.60;99.90
69999;DHT22;57339;52.156;5.372;2024-02-14T01:40:08;9.60;99.90
69999;DHT22;57339;52.156;5.372;2024-02-14T01:42:53;9.60;99.90
69999;DHT22;57339;52.156;5.372;2024-02-14T01:45:21;9.60;99.90
69999;DHT22;57339;52.156;5.372;2024-02-14T01:47:51;9.60;99.90
69999;DHT22;57339;52.156;5.372;2024-02-14T01:50:23;9.60;99.90
69999;DHT22;57339;52.156;5.372;2024-02-14T01:52:51;9.60;99.90
69999;DHT22;57339;52.156;5.372;2024-02-14T01:55:18;9.70;99.90
69999;DHT22;57339;52.156;5.372;2024-02-14T01:57:45;9.70;99.90
69999;DHT22;57339;52.156;5.372;2024-02-14T02:00:13;9.70;99.90
69999;DHT22;57339;52.156;5.372;2024-02-14T02:02:42;9.70;99.90
69999;DHT22;57339;52.156;5.372;2024-02-14T02:05:11;9.70;99.90
69999;DHT22;57339;52.156;5.372;2024-02-14T02:07:38;9.80;99.90
69999;DHT22;57339;52.156;5.372;2024-02-14T02:10:06;9.80;99.90
69999;DHT22;57339;52.156;5.372;2024-02-14T02:12:33;9.80;99.90
69999;DHT22;57339;52.156;5.372;2024-02-14T02:15:06;9.80;99.90
69999;DHT22;57339;52.156;5.372;2024-02-14T02:17:35;9.90;99.90
69999;DHT22;57339;52.156;5.372;2024-02-14T02:20:06;9.90;99.90
69999;DHT22;57339;52.156;5.372;2024-02-14T02:22:34;9.90;99.90
69999;DHT22;57339;52.156;5.372;2024-02-14T02:25:03;9.90;99.90
69999;DHT22;57339;52.156;5.372;2024-02-14T02:27:30;9.90;99.90
69999;DHT22;57339;52.156;5.372;2024-02-14T02:30:07;10.00;99.90
69999;DHT22;57339;52.156;5.372;2024-02-14T02:32:34;10.00;99.90
69999;DHT22;57339;52.156;5.372;2024-02-14T02:35:08;10.00;99.90
69999;DHT22;57339;52.156;5.372;2024-02-14T02:37:36;10.00;99.90
69999;DHT22;57339;52.156;5.372;2024-02-14T02:40:04;10.00;99.90
69999;DHT22;57339;52.156;5.372;2024-02-14T02:42:31;10.00;99.90
69999;DHT22;57339;52.156;5.372;2024-02-14T02:45:01;10.00;99.90
69999;DHT22;57339;52.156;5.372;2024-02-14T02:47:29;10.00;99.90
69999;DHT22;57339;52.156;5.372;2024-02-14T02:50:00;10.10;99.90
69999;DHT22;57339;52.156;5.372;2024-02-14T02:52:27;10.10;99.90
69999;DHT22;57339;52.156;5.372;2024-02-14T02:54:55;10.10;99.90
69999;DHT22;57339;52.156;5.372;2024-02-14T02:57:22;10.10;99.90
69999;DHT22;57339;52.156;5.372;2024-02-14T02:59:49;10.10;99.90
69999;DHT22;57339;52.156;5.372;2024-02-14T03:02:16;10.10;99.90
69999;DHT22;57339;52.156;5.372;2024-02-14T03:04:43;10.10;99.90
69999;DHT22;57339;52.156;5.372;2024-02-14T03:07:19;10.10;99.90
69999;DHT22;57339;52.156;5.372;2024-02-14T03:09:47;10.10;99.90
69999;DHT22;57339;52.156;5.372;2024-02-14T03:12:14;10.10;99.90
69999;DHT22;57339;52.156;5.372;2024-02-14T03:14:41;10.10;99.90
69999;DHT22;57339;52.156;5.372;2024-02-14T03:17:08;10.10;99.90
69999;DHT22;57339;52.156;5.372;2024-02-14T03:19:35;10.20;99.90
69999;DHT22;57339;52.156;5.372;2024-02-14T03:22:05;10.20;99.90
69999;DHT22;57339;52.156;5.372;2024-02-14T03:24:34;10.20;99.90
69999;DHT22;57339;52.156;5.372;2024-02-14T03:27:03;10.20;99.90
69999;DHT22;57339;52.156;5.372;2024-02-14T03:29:31;10.20;99.90
69999;DHT22;57339;52.156;5.372;2024-02-14T03:31:59;10.20;99.90
69999;DHT22;57339;52.156;5.372;2024-02-14T03:34:26;10.20;99.90
69999;DHT22;57339;52.156;5.372;2024-02-14T03:36:54;10.20;99.90
69999;DHT22;57339;52.156;5.372;2024-02-14T03:39:21;10.30;99.90
69999;DHT22;57339;52.156;5.372;2024-02-14T03:41:48;10.30;99.90
69999;DHT22;57339;52.156;5.372;2024-02-14T03:44:15;10.30;99.90
69999;DHT22;57339;52.156;5.372;2024-02-14T03:46:43;10.40;99.90
69999;DHT22;57339;52.156;5.372;2024-02-14T03:49:10;10.30;99.90
69999;DHT22;57339;52.156;5.372;2024-02-14T03:51:37;10.40;99.90
69999;DHT22;57339;52.156;5.372;2024-02-14T03:54:04;10.40;99.90
69999;DHT22;57339;52.156;5.372;2024-02-14T03:56:31;10.40;99.90
69999;DHT22;57339;52.156;5.372;2024-02-14T03:58:59;10.40;99.90
69999;DHT22;57339;52.156;5.372;2024-02-14T04:01:26;10.40;99.90
69999;DHT22;57339;52.156;5.372;2024-02-14T04:03:53;10.50;99.90
69999;DHT22;57339;52.156;5.372;2024-02-14T04:06:21;10.60;99.90
69999;DHT22;57339;52.156;5.372;2024-02-14T04:08:48;10.50;99.90
69999;DHT22;57339;52.156;5.372;2024-02-14T04:11:15;10.50;99.90
69999;DHT22;57339;52.156;5.372;2024-02-14T04:13:42;10.50;99.90
69999;DHT22;57339;52.156;5.372;2024-02-14T04:16:09;10.50;99.90
69999;DHT22;57339;52.156;5.372;2024-02-14T04:18:36;10.50;99.90
69999;DHT22;57339;52.156;5.372;2024-02-14T04:21:07;10.60;99.90
69999;DHT22;57339;52.156;5.372;2024-02-14T04:23:34;10.60;99.90
69999;DHT22;57339;52.156;5.372;2024-02-14T04:26:01;10.60;99.90
69999;DHT22;57339;52.156;5.372;2024-02-14T04:28:29;10.60;99.90
69999;DHT22;57339;52.156;5.372;2024-02-14T04:30:56;10.60;99.90
69999;DHT22;57339;52.156;5.372;2024-02-14T04:33:23;10.70;99.90
69999;DHT22;57339;52.156;5.372;2024-02-14T04:35:51;10.70;99.90
69999;DHT22;57339;52.156;5.372;2024-02-14T04:38:18;10.70;99.90
69999;DHT22;57339;52.156;5.372;2024-02-14T04:40:45;10.80;99.90
69999;DHT22;57339;52.156;5.372;2024-02-14T04:43:13;10.70;99.90
69999;DHT22;57339;52.156;5.372;2024-02-14T04:45:40;10.70;99.90
69999;DHT22;57339;52.156;5.372;2024-02-14T04:48:08;10.70;99.90
69999;DHT22;57339;52.156;5.372;2024-02-14T04:50:36;10.80;99.90
69999;DHT22;57339;52.156;5.372;2024-02-14T04:53:04;10.70;99.90
69999;DHT22;57339;52.156;5.372;2024-02-14T04:55:31;10.70;99.90
69999;DHT22;57339;52.156;5.372;2024-02-14T04:58:01;10.80;99.90
69999;DHT22;57339;52.156;5.372;2024-02-14T05:00:28;10.80;99.90
69999;DHT22;57339;52.156;5.372;2024-02-14T05:02:56;10.80;99.90
69999;DHT22;57339;52.156;5.372;2024-02-14T05:05:23;10.80;99.90
69999;DHT22;57339;52.156;5.372;2024-02-14T05:07:51;10.80;99.90
69999;DHT22;57339;52.156;5.372;2024-02-14T05:10:18;10.80;99.90
69999;DHT22;57339;52.156;5.372;2024-02-14T05:12:45;10.80;99.90
69999;DHT22;57339;52.156;5.372;2024-02-14T05:15:13;10.80;99.90
69999;DHT22;57339;52.156;5.372;2024-02-14T05:17:42;10.80;99.90
69999;DHT22;57339;52.156;5.372;2024-02-14T05:20:10;10.80;99.90
69999;DHT22;57339;52.156;5.372;2024-02-14T05:22:37;10.80;99.90
69999;DHT22;57339;52.156;5.372;2024-02-14T05:25:05;10.80;99.90
69999;DHT22;57339;52.156;5.372;2024-02-14T05:27:33;10.90;99.90
69999;DHT22;57339;52.156;5.372;2024-02-14T05:30:01;10.80;99.90
69999;DHT22;57339;52.156;5.372;2024-02-14T05:32:28;10.90;99.90
69999;DHT22;57339;52.156;5.372;2024-02-14T05:34:56;10.90;99.90
69999;DHT22;57339;52.156;5.372;2024-02-14T05:37:23;10.80;99.90
69999;DHT22;57339;52.156;5.372;2024-02-14T05:39:50;10.90;99.90
69999;DHT22;57339;52.156;5.372;2024-02-14T05:42:17;10.90;99.90
69999;DHT22;57339;52.156;5.372;2024-02-14T05:44:44;10.90;99.90
69999;DHT22;57339;52.156;5.372;2024-02-14T05:47:11;10.90;99.90
69999;DHT22;57339;52.156;5.372;2024-02-14T05:49:40;10.90;99.90
69999;DHT22;57339;52.156;5.372;2024-02-14T05:52:07;10.90;99.90
69999;DHT22;57339;52.156;5.372;2024-02-14T05:54:35;10.90;99.90
69999;DHT22;57339;52.156;5.372;2024-02-14T05:57:02;10.90;99.90
69999;DHT22;57339;52.156;5.372;2024-02-14T05:59:30;10.90;99.90
69999;DHT22;57339;52.156;5.372;2024-02-14T06:01:57;10.90;99.90
69999;DHT22;57339;52.156;5.372;2024-02-14T06:04:24;10.90;99.90
69999;DHT22;57339;52.156;5.372;2024-02-14T06:06:51;10.90;99.90
69999;DHT22;57339;52.156;5.372;2024-02-14T06:09:18;10.90;99.90
69999;DHT22;57339;52.156;5.372;2024-02-14T06:11:45;10.90;99.90
69999;DHT22;57339;52.156;5.372;2024-02-14T06:14:12;10.90;99.90
69999;DHT22;57339;52.156;5.372;2024-02-14T06:16:39;10.90;99.90
69999;DHT22;57339;52.156;5.372;2024-02-14T06:19:06;10.90;99.90
69999;DHT22;57339;52.156;5.372;2024-02-14T06:21:34;11.00;99.90
69999;DHT22;57339;52.156;5.372;2024-02-14T06:24:01;10.90;99.90
69999;DHT22;57339;52.156;5.372;2024-02-14T06:26:28;10.90;99.90
69999;DHT22;57339;52.156;5.372;2024-02-14T06:28:55;11.00;99.90
69999;DHT22;57339;52.156;5.372;2024-02-14T06:31:22;10.90;99.90
69999;DHT22;57339;52.156;5.372;2024-02-14T06:33:50;10.90;99.90
69999;DHT22;57339;52.156;5.372;2024-02-14T06:36:17;11.00;99.90
69999;DHT22;57339;52.156;5.372;2024-02-14T06:38:44;11.00;99.90
69999;DHT22;57339;52.156;5.372;2024-02-14T06:41:12;11.00;99.90
69999;DHT22;57339;52.156;5.372;2024-02-14T06:43:39;11.00;99.90
69999;DHT22;57339;52.156;5.372;2024-02-14T06:46:06;10.90;99.90
69999;DHT22;57339;52.156;5.372;2024-02-14T06:48:34;11.00;99.90
69999;DHT22;57339;52.156;5.372;2024-02-14T06:51:01;10.90;99.90
69999;DHT22;57339;52.156;5.372;2024-02-14T06:53:28;11.00;99.90
69999;DHT22;57339;52.156;5.372;2024-02-14T06:55:56;11.00;99.90
69999;DHT22;57339;52.156;5.372;2024-02-14T06:58:22;10.90;99.90
69999;DHT22;57339;52.156;5.372;2024-02-14T07:00:50;11.00;99.90
69999;DHT22;57339;52.156;5.372;2024-02-14T07:03:17;11.00;99.90
69999;DHT22;57339;52.156;5.372;2024-02-14T07:05:44;11.00;99.90
69999;DHT22;57339;52.156;5.372;2024-02-14T07:08:11;11.00;99.90
69999;DHT22;57339;52.156;5.372;2024-02-14T07:10:38;11.00;99.90
69999;DHT22;57339;52.156;5.372;2024-02-14T07:13:05;11.00;99.90
69999;DHT22;57339;52.156;5.372;2024-02-14T07:15:32;11.00;99.90
69999;DHT22;57339;52.156;5.372;2024-02-14T07:17:59;11.10;99.90
69999;DHT22;57339;52.156;5.372;2024-02-14T07:20:26;11.10;99.90
69999;DHT22;57339;52.156;5.372;2024-02-14T07:22:54;11.10;99.90
69999;DHT22;57339;52.156;5.372;2024-02-14T07:25:21;11.10;99.90
69999;DHT22;57339;52.156;5.372;2024-02-14T07:27:49;11.10;99.90
69999;DHT22;57339;52.156;5.372;2024-02-14T07:30:16;11.10;99.90
69999;DHT22;57339;52.156;5.372;2024-02-14T07:32:44;11.10;99.90
69999;DHT22;57339;52.156;5.372;2024-02-14T07:35:11;11.20;99.90
69999;DHT22;57339;52.156;5.372;2024-02-14T07:37:39;11.10;99.90
69999;DHT22;57339;52.156;5.372;2024-02-14T07:40:07;11.20;99.90
69999;DHT22;57339;52.156;5.372;2024-02-14T07:42:35;11.10;99.90
69999;DHT22;57339;52.156;5.372;2024-02-14T07:45:03;11.20;99.90
69999;DHT22;57339;52.156;5.372;2024-02-14T07:47:32;11.20;99.90
69999;DHT22;57339;52.156;5.372;2024-02-14T07:50:00;11.20;99.90
69999;DHT22;57339;52.156;5.372;2024-02-14T07:52:27;11.20;99.90
69999;DHT22;57339;52.156;5.372;2024-02-14T07:54:55;11.20;99.90
69999;DHT22;57339;52.156;5.372;2024-02-14T07:57:23;11.30;99.90
69999;DHT22;57339;52.156;5.372;2024-02-14T07:59:51;11.30;99.90
69999;DHT22;57339;52.156;5.372;2024-02-14T08:02:19;11.30;99.90
69999;DHT22;57339;52.156;5.372;2024-02-14T08:04:46;11.40;99.90
69999;DHT22;57339;52.156;5.372;2024-02-14T08:07:16;11.30;99.90
69999;DHT22;57339;52.156;5.372;2024-02-14T08:09:43;11.30;99.90
69999;DHT22;57339;52.156;5.372;2024-02-14T08:12:10;11.30;99.90
69999;DHT22;57339;52.156;5.372;2024-02-14T08:14:37;11.40;99.90
69999;DHT22;57339;52.156;5.372;2024-02-14T08:17:05;11.40;99.90
69999;DHT22;57339;52.156;5.372;2024-02-14T08:19:32;11.40;99.90
69999;DHT22;57339;52.156;5.372;2024-02-14T08:22:00;11.30;99.90
69999;DHT22;57339;52.156;5.372;2024-02-14T08:24:27;11.30;99.90
69999;DHT22;57339;52.156;5.372;2024-02-14T08:26:54;11.40;99.90
69999;DHT22;57339;52.156;5.372;2024-02-14T08:29:22;11.40;99.90
69999;DHT22;57339;52.156;5.372;2024-02-14T08:31:49;11.40;99.90
69999;DHT22;57339;52.156;5.372;2024-02-14T08:34:16;11.40;99.90
69999;DHT22;57339;52.156;5.372;2024-02-14T08:36:44;11.40;99.90
69999;DHT22;57339;52.156;5.372;2024-02-14T08:39:11;11.40;99.90
69999;DHT22;57339;52.156;5.372;2024-02-14T08:41:43;11.40;99.90
69999;DHT22;57339;52.156;5.372;2024-02-14T08:44:11;11.40;99.90
69999;DHT22;57339;52.156;5.372;2024-02-14T08:46:38;11.50;99.90
69999;DHT22;57339;52.156;5.372;2024-02-14T08:49:05;11.50;99.90
69999;DHT22;57339;52.156;5.372;2024-02-14T08:51:38;11.50;99.90
69999;DHT22;57339;52.156;5.372;2024-02-14T08:54:05;11.50;99.90
69999;DHT22;57339;52.156;5.372;2024-02-14T08:56:33;11.50;99.90
69999;DHT22;57339;52.156;5.372;2024-02-14T08:59:02;11.60;99.90
69999;DHT22;57339;52.156;5.372;2024-02-14T09:01:30;11.60;99.90
69999;DHT22;57339;52.156;5.372;2024-02-14T09:03:57;11.60;99.90
69999;DHT22;57339;52.156;5.372;2024-02-14T09:06:25;11.60;99.90
69999;DHT22;57339;52.156;5.372;2024-02-14T09:08:52;11.60;99.90
69999;DHT22;57339;52.156;5.372;2024-02-14T09:11:19;11.60;99.90
69999;DHT22;57339;52.156;5.372;2024-02-14T09:13:46;11.60;99.90
69999;DHT22;57339;52.156;5.372;2024-02-14T09:16:13;11.50;99.90
69999;DHT22;57339;52.156;5.372;2024-02-14T09:18:41;11.60;99.90
69999;DHT22;57339;52.156;5.372;2024-02-14T09:21:08;11.60;99.90
69999;DHT22;57339;52.156;5.372;2024-02-14T09:23:36;11.60;99.90
69999;DHT22;57339;52.156;5.372;2024-02-14T09:26:03;11.60;99.90
69999;DHT22;57339;52.156;5.372;2024-02-14T09:28:35;11.60;99.90
69999;DHT22;57339;52.156;5.372;2024-02-14T09:31:03;11.60;99.90
69999;DHT22;57339;52.156;5.372;2024-02-14T09:33:32;11.60;99.90
69999;DHT22;57339;52.156;5.372;2024-02-14T09:35:59;11.60;99.90
69999;DHT22;57339;52.156;5.372;2024-02-14T09:38:26;11.70;99.90
69999;DHT22;57339;52.156;5.372;2024-02-14T09:41:03;11.70;99.90
69999;DHT22;57339;52.156;5.372;2024-02-14T09:43:39;11.80;99.90
69999;DHT22;57339;52.156;5.372;2024-02-14T09:46:13;11.80;99.90
69999;DHT22;57339;52.156;5.372;2024-02-14T09:48:44;11.80;99.90
69999;DHT22;57339;52.156;5.372;2024-02-14T09:51:12;11.80;99.90
69999;DHT22;57339;52.156;5.372;2024-02-14T09:53:40;11.80;99.90
69999;DHT22;57339;52.156;5.372;2024-02-14T09:56:11;11.80;99.90
69999;DHT22;57339;52.156;5.372;2024-02-14T09:58:40;11.90;99.90
69999;DHT22;57339;52.156;5.372;2024-02-14T10:01:07;11.80;99.90
69999;DHT22;57339;52.156;5.372;2024-02-14T10:03:35;11.80;99.90
69999;DHT22;57339;52.156;5.372;2024-02-14T10:06:03;11.80;99.90
69999;DHT22;57339;52.156;5.372;2024-02-14T10:08:30;11.80;99.90
69999;DHT22;57339;52.156;5.372;2024-02-14T10:10:57;11.80;99.90
69999;DHT22;57339;52.156;5.372;2024-02-14T10:13:28;11.90;99.90
69999;DHT22;57339;52.156;5.372;2024-02-14T10:15:56;11.80;99.90
69999;DHT22;57339;52.156;5.372;2024-02-14T10:18:23;11.90;99.90
69999;DHT22;57339;52.156;5.372;2024-02-14T10:20:59;11.90;99.90
69999;DHT22;57339;52.156;5.372;2024-02-14T10:23:27;11.90;99.90
69999;DHT22;57339;52.156;5.372;2024-02-14T10:25:56;11.90;99.90
69999;DHT22;57339;52.156;5.372;2024-02-14T10:28:24;11.90;99.90
69999;DHT22;57339;52.156;5.372;2024-02-14T10:31:20;12.00;99.90
69999;DHT22;57339;52.156;5.372;2024-02-14T10:33:48;12.00;99.90
69999;DHT22;57339;52.156;5.372;2024-02-14T10:36:16;12.00;99.90
69999;DHT22;57339;52.156;5.372;2024-02-14T10:38:46;12.00;99.90
69999;DHT22;57339;52.156;5.372;2024-02-14T10:41:14;12.10;99.90
69999;DHT22;57339;52.156;5.372;2024-02-14T10:43:42;12.10;99.90
69999;DHT22;57339;52.156;5.372;2024-02-14T10:46:20;12.10;99.90
69999;DHT22;57339;52.156;5.372;2024-02-14T10:48:54;12.20;99.90
69999;DHT22;57339;52.156;5.372;2024-02-14T10:51:25;12.30;99.90
69999;DHT22;57339;52.156;5.372;2024-02-14T10:53:56;12.20;99.90
69999;DHT22;57339;52.156;5.372;2024-02-14T10:56:28;12.20;99.90
69999;DHT22;57339;52.156;5.372;2024-02-14T10:58:58;12.30;99.90
69999;DHT22;57339;52.156;5.372;2024-02-14T11:01:27;12.30;99.90
69999;DHT22;57339;52.156;5.372;2024-02-14T11:03:54;12.20;99.90
69999;DHT22;57339;52.156;5.372;2024-02-14T11:06:22;12.30;99.90
69999;DHT22;57339;52.156;5.372;2024-02-14T11:09:00;12.30;99.90
69999;DHT22;57339;52.156;5.372;2024-02-14T11:11:29;12.40;99.90
69999;DHT22;57339;52.156;5.372;2024-02-14T11:13:57;12.40;99.90
69999;DHT22;57339;52.156;5.372;2024-02-14T11:16:27;12.40;99.90
69999;DHT22;57339;52.156;5.372;2024-02-14T11:19:08;12.50;99.90
69999;DHT22;57339;52.156;5.372;2024-02-14T11:21:36;12.40;99.90
69999;DHT22;57339;52.156;5.372;2024-02-14T11:24:06;12.50;99.90
69999;DHT22;57339;52.156;5.372;2024-02-14T11:26:51;12.50;99.90
69999;DHT22;57339;52.156;5.372;2024-02-14T11:29:20;12.50;99.90
69999;DHT22;57339;52.156;5.372;2024-02-14T11:31:59;12.50;99.90
69999;DHT22;57339;52.156;5.372;2024-02-14T11:34:27;12.50;99.90
69999;DHT22;57339;52.156;5.372;2024-02-14T11:36:56;12.50;99.90
69999;DHT22;57339;52.156;5.372;2024-02-14T11:39:24;12.50;99.90
69999;DHT22;57339;52.156;5.372;2024-02-14T11:41:56;12.40;99.90
69999;DHT22;57339;52.156;5.372;2024-02-14T11:44:24;12.40;99.90
69999;DHT22;57339;52.156;5.372;2024-02-14T11:46:51;12.30;99.90
69999;DHT22;57339;52.156;5.372;2024-02-14T11:49:20;12.40;99.90
69999;DHT22;57339;52.156;5.372;2024-02-14T11:52:13;12.40;99.90
69999;DHT22;57339;52.156;5.372;2024-02-14T12:04:05;12.40;99.90
69999;DHT22;57339;52.156;5.372;2024-02-14T12:06:34;12.40;99.90
69999;DHT22;57339;52.156;5.372;2024-02-14T12:09:05;12.40;99.90
69999;DHT22;57339;52.156;5.372;2024-02-14T12:11:39;12.40;99.90
69999;DHT22;57339;52.156;5.372;2024-02-14T12:14:10;12.40;99.90
69999;DHT22;57339;52.156;5.372;2024-02-14T12:16:38;12.40;99.90
69999;DHT22;57339;52.156;5.372;2024-02-14T12:19:10;12.50;99.90
69999;DHT22;57339;52.156;5.372;2024-02-14T12:21:41;12.50;99.90
69999;DHT22;57339;52.156;5.372;2024-02-14T12:24:12;12.50;99.90
69999;DHT22;57339;52.156;5.372;2024-02-14T12:26:40;12.50;99.90
69999;DHT22;57339;52.156;5.372;2024-02-14T12:29:10;12.50;99.90
69999;DHT22;57339;52.156;5.372;2024-02-14T12:31:42;12.50;99.90
69999;DHT22;57339;52.156;5.372;2024-02-14T12:34:11;12.60;99.90
69999;DHT22;57339;52.156;5.372;2024-02-14T12:36:39;12.60;99.90
69999;DHT22;57339;52.156;5.372;2024-02-14T12:39:06;12.60;99.90
69999;DHT22;57339;52.156;5.372;2024-02-14T12:41:36;12.50;99.90
69999;DHT22;57339;52.156;5.372;2024-02-14T12:44:04;12.60;99.90
69999;DHT22;57339;52.156;5.372;2024-02-14T12:46:40;12.60;99.90
69999;DHT22;57339;52.156;5.372;2024-02-14T12:49:10;12.60;99.90
69999;DHT22;57339;52.156;5.372;2024-02-14T12:51:40;12.60;99.90
69999;DHT22;57339;52.156;5.372;2024-02-14T12:54:08;12.60;99.90
69999;DHT22;57339;52.156;5.372;2024-02-14T12:56:38;12.60;99.90
69999;DHT22;57339;52.156;5.372;2024-02-14T12:59:17;12.60;99.90
69999;DHT22;57339;52.156;5.372;2024-02-14T13:01:44;12.60;99.90
69999;DHT22;57339;52.156;5.372;2024-02-14T13:04:13;12.60;99.90
69999;DHT22;57339;52.156;5.372;2024-02-14T13:07:01;12.50;99.90
69999;DHT22;57339;52.156;5.372;2024-02-14T13:09:31;12.60;99.90
69999;DHT22;57339;52.156;5.372;2024-02-14T13:12:11;12.60;99.90
69999;DHT22;57339;52.156;5.372;2024-02-14T13:14:39;12.70;99.90
69999;DHT22;57339;52.156;5.372;2024-02-14T13:17:10;12.70;99.90
69999;DHT22;57339;52.156;5.372;2024-02-14T13:19:40;12.70;99.90
69999;DHT22;57339;52.156;5.372;2024-02-14T13:22:11;12.70;99.90
69999;DHT22;57339;52.156;5.372;2024-02-14T13:24:44;12.70;99.90
69999;DHT22;57339;52.156;5.372;2024-02-14T13:27:12;12.70;99.90
69999;DHT22;57339;52.156;5.372;2024-02-14T13:29:41;12.70;99.90
69999;DHT22;57339;52.156;5.372;2024-02-14T13:32:11;12.70;99.90
69999;DHT22;57339;52.156;5.372;2024-02-14T13:34:39;12.70;99.90
69999;DHT22;57339;52.156;5.372;2024-02-14T13:47:47;12.70;99.90
69999;DHT22;57339;52.156;5.372;2024-02-14T13:50:15;12.60;99.90
69999;DHT22;57339;52.156;5.372;2024-02-14T13:52:42;12.60;99.90
69999;DHT22;57339;52.156;5.372;2024-02-14T13:55:12;12.60;99.90
69999;DHT22;57339;52.156;5.372;2024-02-14T13:57:39;12.70;99.90
69999;DHT22;57339;52.156;5.372;2024-02-14T14:00:08;12.70;99.90
69999;DHT22;57339;52.156;5.372;2024-02-14T14:02:36;12.70;99.90
69999;DHT22;57339;52.156;5.372;2024-02-14T14:05:04;12.80;99.90
69999;DHT22;57339;52.156;5.372;2024-02-14T14:07:35;12.80;99.90
69999;DHT22;57339;52.156;5.372;2024-02-14T14:10:24;12.80;99.90
69999;DHT22;57339;52.156;5.372;2024-02-14T14:13:08;12.80;99.90
69999;DHT22;57339;52.156;5.372;2024-02-14T14:15:39;12.90;99.90
69999;DHT22;57339;52.156;5.372;2024-02-14T14:18:09;12.80;99.90
69999;DHT22;57339;52.156;5.372;2024-02-14T14:20:38;12.80;99.90
69999;DHT22;57339;52.156;5.372;2024-02-14T14:23:06;12.90;99.90
69999;DHT22;57339;52.156;5.372;2024-02-14T14:25:36;12.90;99.90
69999;DHT22;57339;52.156;5.372;2024-02-14T14:28:09;12.90;99.90
69999;DHT22;57339;52.156;5.372;2024-02-14T14:30:40;12.90;99.90
69999;DHT22;57339;52.156;5.372;2024-02-14T14:33:15;12.90;99.90
69999;DHT22;57339;52.156;5.372;2024-02-14T14:35:49;12.90;99.90
69999;DHT22;57339;52.156;5.372;2024-02-14T14:38:21;12.90;99.90
69999;DHT22;57339;52.156;5.372;2024-02-14T14:40:58;12.90;99.90
69999;DHT22;57339;52.156;5.372;2024-02-14T14:43:38;12.90;99.90
69999;DHT22;57339;52.156;5.372;2024-02-14T14:46:18;13.00;99.90
69999;DHT22;57339;52.156;5.372;2024-02-14T14:48:48;12.90;99.90
69999;DHT22;57339;52.156;5.372;2024-02-14T14:51:21;13.00;99.90
69999;DHT22;57339;52.156;5.372;2024-02-14T14:53:48;13.10;99.90
69999;DHT22;57339;52.156;5.372;2024-02-14T14:56:18;13.00;99.90
69999;DHT22;57339;52.156;5.372;2024-02-14T14:58:53;13.00;99.90
69999;DHT22;57339;52.156;5.372;2024-02-14T15:01:49;13.00;99.90
69999;DHT22;57339;52.156;5.372;2024-02-14T15:04:21;13.10;99.90
69999;DHT22;57339;52.156;5.372;2024-02-14T15:06:48;13.00;99.90
69999;DHT22;57339;52.156;5.372;2024-02-14T15:09:26;13.10;99.90
69999;DHT22;57339;52.156;5.372;2024-02-14T15:12:12;13.10;99.90
69999;DHT22;57339;52.156;5.372;2024-02-14T15:14:40;13.10;99.90
69999;DHT22;57339;52.156;5.372;2024-02-14T15:17:47;13.10;99.90
69999;DHT22;57339;52.156;5.372;2024-02-14T15:20:16;13.10;99.90
69999;DHT22;57339;52.156;5.372;2024-02-14T15:22:47;13.10;99.90
69999;DHT22;57339;52.156;5.372;2024-02-14T15:25:26;13.10;99.90
69999;DHT22;57339;52.156;5.372;2024-02-14T15:28:19;13.10;99.90
69999;DHT22;57339;52.156;5.372;2024-02-14T15:30:53;13.10;99.90
69999;DHT22;57339;52.156;5.372;2024-02-14T15:33:25;13.10;99.90
69999;DHT22;57339;52.156;5.372;2024-02-14T15:35:57;13.10;99.90
69999;DHT22;57339;52.156;5.372;2024-02-14T15:38:31;13.00;99.90
69999;DHT22;57339;52.156;5.372;2024-02-14T15:41:00;13.00;99.90
69999;DHT22;57339;52.156;5.372;2024-02-14T15:43:32;13.00;99.90
69999;DHT22;57339;52.156;5.372;2024-02-14T15:46:03;13.10;99.90
69999;DHT22;57339;52.156;5.372;2024-02-14T15:48:36;13.00;99.90
69999;DHT22;57339;52.156;5.372;2024-02-14T15:51:05;13.00;99.90
69999;DHT22;57339;52.156;5.372;2024-02-14T15:53:34;13.00;99.90
69999;DHT22;57339;52.156;5.372;2024-02-14T15:56:08;13.10;99.90
69999;DHT22;57339;52.156;5.372;2024-02-14T15:58:36;13.00;99.90
69999;DHT22;57339;52.156;5.372;2024-02-14T16:01:12;13.00;99.90
69999;DHT22;57339;52.156;5.372;2024-02-14T16:03:46;13.10;99.90
69999;DHT22;57339;52.156;5.372;2024-02-14T16:06:16;13.00;99.90
69999;DHT22;57339;52.156;5.372;2024-02-14T16:08:45;13.00;99.90
69999;DHT22;57339;52.156;5.372;2024-02-14T16:11:16;13.00;99.90
69999;DHT22;57339;52.156;5.372;2024-02-14T16:13:49;13.00;99.90
69999;DHT22;57339;52.156;5.372;2024-02-14T16:16:17;13.00;99.90
69999;DHT22;57339;52.156;5.372;2024-02-14T16:18:49;13.00;99.90
69999;DHT22;57339;52.156;5.372;2024-02-14T16:21:19;13.00;99.90
69999;DHT22;57339;52.156;5.372;2024-02-14T16:23:49;13.00;99.90
69999;DHT22;57339;52.156;5.372;2024-02-14T16:26:16;13.00;99.90
69999;DHT22;57339;52.156;5.372;2024-02-14T16:28:50;13.10;99.90
69999;DHT22;57339;52.156;5.372;2024-02-14T16:31:17;13.00;99.90
69999;DHT22;57339;52.156;5.372;2024-02-14T16:33:48;13.00;99.90
69999;DHT22;57339;52.156;5.372;2024-02-14T16:36:16;13.00;99.90
69999;DHT22;57339;52.156;5.372;2024-02-14T16:38:44;13.00;99.90
69999;DHT22;57339;52.156;5.372;2024-02-14T16:41:13;13.00;99.90
69999;DHT22;57339;52.156;5.372;2024-02-14T16:43:46;13.00;99.90
69999;DHT22;57339;52.156;5.372;2024-02-14T16:46:14;13.00;99.90